Time;durP1;ratioP1;P1;durP2;ratioP2;P2;SDS_P1;SDS_P2;PMS_P1;PMS_P2;Temp;Humidity;BMP_temperature;BMP_pressure;BME280_temperature;BME280_humidity;BME280_pressure;Samples;Min_cycle;Max_cycle;Signal;HPM_P1;HPM_P2
2022/07/20 00:01:47;;;;;;;8.32;5.88;;;11.20;99.90;;;;;;5035045;28;20061;-67
2022/07/20 00:04:16;;;;;;;7.72;6.05;;;11.40;99.90;;;;;;5035336;28;20045;-67
2022/07/20 00:06:43;;;;;;;9.77;6.97;;;11.70;99.90;;;;;;5031939;28;20049;-67
2022/07/20 00:11:56;;;;;;;9.45;6.15;;;11.80;99.90;;;;;;5034625;28;20060;-67
2022/07/20 00:14:24;;;;;;;8.02;6.15;;;11.80;99.90;;;;;;5034811;28;20042;-67
2022/07/20 00:16:51;;;;;;;9.90;6.80;;;11.60;99.90;;;;;;5033737;28;20041;-67
2022/07/20 00:19:19;;;;;;;6.82;6.18;;;11.70;99.90;;;;;;5035564;28;20045;-67
2022/07/20 00:21:47;;;;;;;10.20;5.53;;;11.90;99.90;;;;;;5034770;28;20061;-67
2022/07/20 00:24:14;;;;;;;7.75;5.45;;;12.10;99.90;;;;;;5034724;28;20033;-67
2022/07/20 00:26:42;;;;;;;4.57;3.88;;;12.10;99.90;;;;;;5032240;28;20046;-67
2022/07/20 00:29:09;;;;;;;6.35;3.53;;;12.00;99.90;;;;;;5035540;28;20037;-67
2022/07/20 00:31:36;;;;;;;8.00;3.50;;;11.80;99.90;;;;;;5031343;28;20026;-67
2022/07/20 00:34:04;;;;;;;6.10;3.83;;;11.80;99.90;;;;;;5033514;28;20038;-68
2022/07/20 00:36:31;;;;;;;5.68;3.70;;;11.80;99.90;;;;;;5032260;28;20038;-67
2022/07/20 00:38:59;;;;;;;5.55;3.28;;;11.80;99.90;;;;;;5031463;28;20042;-68
2022/07/20 00:41:26;;;;;;;6.18;2.92;;;11.80;99.90;;;;;;5028707;28;20034;-68
2022/07/20 00:44:11;;;;;;;5.68;2.88;;;11.90;99.90;;;;;;5025727;28;20034;-68
2022/07/20 00:46:41;;;;;;;7.68;2.88;;;11.90;99.90;;;;;;5027427;28;20117;-68
2022/07/20 00:49:11;;;;;;;6.38;2.83;;;11.90;99.90;;;;;;5029272;28;20038;-68
2022/07/20 00:51:41;;;;;;;3.70;2.25;;;11.90;99.90;;;;;;5028320;28;20026;-68
2022/07/20 00:54:09;;;;;;;5.18;2.50;;;11.90;99.90;;;;;;5030393;28;20053;-68
2022/07/20 00:56:37;;;;;;;4.80;2.80;;;11.90;99.90;;;;;;5025387;28;20042;-68
2022/07/20 00:59:06;;;;;;;3.53;1.95;;;11.90;99.90;;;;;;5028479;28;20403;-68
2022/07/20 01:01:34;;;;;;;3.88;2.42;;;12.00;99.90;;;;;;5031941;28;20026;-67
2022/07/20 01:04:02;;;;;;;4.07;2.50;;;12.20;99.90;;;;;;5032904;28;20034;-68
2022/07/20 01:06:30;;;;;;;4.28;2.97;;;12.30;99.90;;;;;;5033604;28;20030;-67
2022/07/20 01:08:57;;;;;;;3.42;2.45;;;12.40;99.90;;;;;;5031726;28;20399;-66
2022/07/20 01:11:25;;;;;;;5.07;2.30;;;12.50;99.90;;;;;;5026993;28;20041;-66
2022/07/20 01:13:52;;;;;;;4.32;2.25;;;12.50;99.90;;;;;;5028763;28;20549;-67
2022/07/20 01:16:19;;;;;;;5.47;2.05;;;12.70;99.90;;;;;;5027911;28;20042;-67
2022/07/20 01:18:47;;;;;;;2.03;0.50;;;12.90;99.90;;;;;;5027076;28;20103;-68
2022/07/20 01:21:14;;;;;;;2.70;0.70;;;12.80;99.90;;;;;;5028667;28;20072;-68
2022/07/20 01:23:41;;;;;;;2.13;0.70;;;12.70;99.90;;;;;;5028193;28;20057;-68
2022/07/20 01:26:09;;;;;;;1.95;0.55;;;12.50;99.90;;;;;;5020777;28;20031;-68
2022/07/20 01:28:36;;;;;;;1.67;0.43;;;12.50;99.90;;;;;;5019952;28;20038;-68
2022/07/20 01:31:03;;;;;;;4.30;0.93;;;12.40;99.90;;;;;;5025559;28;20970;-68
2022/07/20 01:33:31;;;;;;;4.82;0.88;;;12.40;99.90;;;;;;5020515;28;20410;-67
2022/07/20 01:35:58;;;;;;;3.25;0.95;;;12.40;99.90;;;;;;5017772;28;20049;-68
2022/07/20 01:38:25;;;;;;;6.28;0.90;;;12.40;99.90;;;;;;5023335;28;20398;-68
2022/07/20 01:40:52;;;;;;;3.08;1.15;;;12.40;99.90;;;;;;5022676;28;20049;-69
2022/07/20 01:43:20;;;;;;;4.35;1.38;;;12.40;99.90;;;;;;5022912;28;20374;-68
2022/07/20 01:45:47;;;;;;;6.55;1.98;;;12.50;99.90;;;;;;5006106;28;20076;-68
2022/07/20 01:48:15;;;;;;;2.97;1.05;;;12.60;99.90;;;;;;5022356;28;20035;-68
2022/07/20 01:50:42;;;;;;;4.20;1.45;;;12.60;99.90;;;;;;5019938;28;20031;-68
2022/07/20 01:53:10;;;;;;;2.95;1.13;;;12.60;99.90;;;;;;5023905;28;20037;-68
2022/07/20 01:55:37;;;;;;;3.95;0.98;;;12.70;99.90;;;;;;5019735;28;20492;-67
2022/07/20 01:58:04;;;;;;;3.10;1.00;;;12.70;99.90;;;;;;5005882;28;20057;-66
2022/07/20 02:00:32;;;;;;;2.50;0.70;;;12.80;99.90;;;;;;5019060;28;20085;-67
2022/07/20 02:02:59;;;;;;;4.60;0.80;;;12.80;99.90;;;;;;5015759;28;20066;-67
2022/07/20 02:05:26;;;;;;;2.17;0.50;;;12.90;99.90;;;;;;5019691;28;20121;-67
2022/07/20 02:07:54;;;;;;;2.72;0.73;;;13.10;99.90;;;;;;5022914;28;20034;-67
2022/07/20 02:10:21;;;;;;;3.28;0.98;;;13.30;99.90;;;;;;5022645;28;20038;-67
2022/07/20 02:12:48;;;;;;;2.78;0.80;;;13.20;99.90;;;;;;5022541;28;20042;-68
2022/07/20 02:16:14;;;;;;;5.88;1.27;;;13.20;99.90;;;;;;5013703;28;20036;-68
2022/07/20 02:18:10;;;;;;;3.88;0.65;;;13.30;99.90;;;;;;5020362;28;20507;-68
2022/07/20 02:20:38;;;;;;;3.00;0.68;;;13.80;99.90;;;;;;5020544;28;20057;-68
2022/07/20 02:23:07;;;;;;;3.13;0.57;;;14.00;99.90;;;;;;5018050;28;20041;-68
2022/07/20 02:25:36;;;;;;;3.15;0.47;;;14.60;99.90;;;;;;5017032;28;20026;-68
2022/07/20 02:28:05;;;;;;;2.53;0.43;;;15.40;99.90;;;;;;5020210;28;20041;-68
2022/07/20 02:30:34;;;;;;;1.60;0.32;;;15.50;99.90;;;;;;5014727;28;20065;-67
2022/07/20 02:33:01;;;;;;;4.03;0.60;;;15.30;99.90;;;;;;5017337;28;20068;-68
2022/07/20 02:35:29;;;;;;;1.63;0.28;;;15.00;99.90;;;;;;5020617;28;20050;-68
2022/07/20 02:37:56;;;;;;;4.32;0.98;;;14.80;99.90;;;;;;5028790;28;20026;-68
2022/07/20 02:40:24;;;;;;;1.55;0.57;;;15.70;99.90;;;;;;5016923;28;20042;-68
2022/07/20 02:42:51;;;;;;;1.15;0.30;;;15.80;99.90;;;;;;5019938;28;20479;-67
2022/07/20 02:45:18;;;;;;;4.05;0.55;;;15.20;99.90;;;;;;5024366;28;20038;-68
2022/07/20 02:47:47;;;;;;;0.98;0.20;;;14.60;99.90;;;;;;5014161;28;20116;-68
2022/07/20 02:50:14;;;;;;;2.40;0.40;;;14.20;99.90;;;;;;5020326;28;20057;-68
2022/07/20 02:52:43;;;;;;;3.47;0.20;;;14.00;99.90;;;;;;5017407;28;20038;-68
2022/07/20 02:55:11;;;;;;;2.60;0.20;;;13.90;99.90;;;;;;5012074;28;20116;-68
2022/07/20 02:57:39;;;;;;;1.13;0.20;;;13.70;99.90;;;;;;5018368;28;20042;-67
2022/07/20 03:00:08;;;;;;;1.35;0.30;;;13.60;99.90;;;;;;5021202;28;20499;-68
2022/07/20 03:02:36;;;;;;;1.75;0.20;;;13.70;99.90;;;;;;5013955;28;20037;-68
2022/07/20 03:05:04;;;;;;;1.75;0.30;;;13.60;99.90;;;;;;5021454;28;20045;-68
2022/07/20 03:07:31;;;;;;;1.58;0.50;;;13.60;99.90;;;;;;5018059;28;20390;-68
2022/07/20 03:09:58;;;;;;;1.50;0.30;;;13.60;99.90;;;;;;5020563;28;20494;-68
2022/07/20 03:12:26;;;;;;;4.28;0.28;;;13.60;99.90;;;;;;4999676;28;20076;-68
2022/07/20 03:14:53;;;;;;;2.53;0.40;;;13.80;99.90;;;;;;5018017;28;20069;-68
2022/07/20 03:17:21;;;;;;;1.25;0.30;;;13.90;99.90;;;;;;5012882;28;20683;-68
2022/07/20 03:19:48;;;;;;;1.13;0.40;;;14.00;99.90;;;;;;5015599;28;20065;-68
2022/07/20 03:22:16;;;;;;;1.67;0.40;;;14.00;99.90;;;;;;5014874;28;20038;-68
2022/07/20 03:24:43;;;;;;;2.88;0.45;;;14.10;99.90;;;;;;5013020;28;20583;-68
2022/07/20 03:27:11;;;;;;;4.43;0.68;;;14.10;99.90;;;;;;5009144;28;20161;-68
2022/07/20 03:29:39;;;;;;;4.07;0.47;;;14.10;99.90;;;;;;5013757;28;20065;-67
2022/07/20 03:32:06;;;;;;;3.25;0.40;;;14.00;99.90;;;;;;5010288;28;20042;-69
2022/07/20 03:34:33;;;;;;;5.60;0.82;;;13.90;99.90;;;;;;5014604;28;20133;-68
2022/07/20 03:37:01;;;;;;;4.63;0.30;;;13.90;99.90;;;;;;5014515;28;20038;-69
2022/07/20 03:39:28;;;;;;;2.15;0.30;;;14.00;99.90;;;;;;5010754;28;20037;-68
2022/07/20 03:41:55;;;;;;;4.55;0.40;;;14.10;99.90;;;;;;5008790;28;20038;-69
2022/07/20 03:44:23;;;;;;;3.63;0.95;;;14.10;99.90;;;;;;5010769;28;20495;-69
2022/07/20 03:46:50;;;;;;;4.18;1.10;;;14.10;99.90;;;;;;5011951;28;20029;-68
2022/07/20 03:49:17;;;;;;;1.15;0.40;;;14.10;99.90;;;;;;5014724;28;20081;-68
2022/07/20 03:51:44;;;;;;;4.25;0.77;;;14.30;99.90;;;;;;5011546;28;20076;-68
2022/07/20 03:54:12;;;;;;;5.07;1.08;;;14.40;99.90;;;;;;5013957;28;20042;-68
2022/07/20 03:56:42;;;;;;;3.38;0.40;;;14.50;99.90;;;;;;5016532;28;20030;-69
2022/07/20 03:59:11;;;;;;;4.78;0.85;;;14.70;99.90;;;;;;5016722;28;20473;-68
2022/07/20 04:01:39;;;;;;;5.18;0.40;;;15.00;99.90;;;;;;5013902;28;20032;-68
2022/07/20 04:04:07;;;;;;;3.75;0.47;;;14.90;99.90;;;;;;5015994;28;20955;-68
2022/07/20 04:06:34;;;;;;;3.97;0.50;;;14.60;99.90;;;;;;5013803;28;20064;-67
2022/07/20 04:09:02;;;;;;;1.88;0.50;;;14.60;99.90;;;;;;5014517;28;20026;-67
2022/07/20 04:11:30;;;;;;;2.08;0.30;;;14.70;99.90;;;;;;5012826;28;20490;-68
2022/07/20 04:13:58;;;;;;;3.30;0.68;;;14.50;99.90;;;;;;5010294;28;20046;-67
2022/07/20 04:16:25;;;;;;;6.82;0.35;;;14.40;99.90;;;;;;4995533;28;20121;-67
2022/07/20 04:18:52;;;;;;;3.60;0.68;;;14.40;99.90;;;;;;5011455;28;20034;-68
2022/07/20 04:21:20;;;;;;;11.95;0.95;;;14.50;99.90;;;;;;5012609;28;20041;-67
2022/07/20 04:23:47;;;;;;;2.00;0.25;;;14.50;99.90;;;;;;5013061;28;20394;-67
2022/07/20 04:26:14;;;;;;;0.70;0.20;;;14.10;99.90;;;;;;5012551;28;20037;-67
2022/07/20 04:28:42;;;;;;;5.25;0.43;;;13.90;99.90;;;;;;4982200;28;20100;-68
2022/07/20 04:31:09;;;;;;;2.90;0.43;;;13.70;99.90;;;;;;5010774;28;20034;-67
2022/07/20 04:33:36;;;;;;;2.42;0.47;;;13.60;99.90;;;;;;5016983;28;20034;-67
2022/07/20 04:36:04;;;;;;;6.32;2.42;;;13.60;99.90;;;;;;5018277;28;20064;-67
2022/07/20 04:38:31;;;;;;;2.63;0.43;;;13.40;99.90;;;;;;5018981;28;20045;-67
2022/07/20 04:40:58;;;;;;;3.42;0.30;;;13.40;99.90;;;;;;5011886;28;20045;-68
2022/07/20 04:43:26;;;;;;;2.78;0.40;;;13.40;99.90;;;;;;5018701;28;20058;-68
2022/07/20 04:45:53;;;;;;;1.48;0.20;;;13.50;99.90;;;;;;5012579;28;20076;-68
2022/07/20 04:48:21;;;;;;;3.22;0.65;;;13.50;99.90;;;;;;5018233;28;20044;-68
2022/07/20 04:50:48;;;;;;;7.30;0.50;;;13.60;99.90;;;;;;5015613;28;20033;-68
2022/07/20 04:53:15;;;;;;;2.83;0.30;;;13.60;99.90;;;;;;5000538;28;20406;-68
2022/07/20 04:55:42;;;;;;;3.63;0.30;;;13.60;99.90;;;;;;5016381;28;20053;-68
2022/07/20 04:58:10;;;;;;;6.78;1.67;;;13.50;99.90;;;;;;5016093;28;20130;-68
2022/07/20 05:00:37;;;;;;;4.38;0.60;;;13.50;99.90;;;;;;5020272;28;20530;-68
2022/07/20 05:03:04;;;;;;;3.80;0.63;;;13.60;99.90;;;;;;5022123;28;20092;-67
2022/07/20 05:05:31;;;;;;;5.03;0.57;;;13.50;99.90;;;;;;5014058;28;20034;-67
2022/07/20 05:07:59;;;;;;;3.80;0.90;;;13.50;99.90;;;;;;5010238;28;20153;-68
2022/07/20 05:10:26;;;;;;;5.45;0.60;;;13.50;99.90;;;;;;5003710;28;20030;-68
2022/07/20 05:12:53;;;;;;;2.40;0.25;;;13.30;99.90;;;;;;5013436;28;20521;-67
2022/07/20 05:15:23;;;;;;;1.95;0.20;;;13.20;99.90;;;;;;5017805;28;20034;-68
2022/07/20 05:17:53;;;;;;;1.08;0.15;;;13.00;99.90;;;;;;5017065;28;20125;-68
2022/07/20 05:20:21;;;;;;;2.70;0.20;;;12.80;99.90;;;;;;5014969;28;20046;-67
2022/07/20 05:22:48;;;;;;;1.08;0.08;;;12.80;99.90;;;;;;5018320;28;20104;-68
2022/07/20 05:25:15;;;;;;;1.42;0.10;;;12.80;99.90;;;;;;5018554;28;20040;-67
2022/07/20 05:27:43;;;;;;;3.92;0.13;;;12.70;99.90;;;;;;5024003;28;20026;-67
2022/07/20 05:30:10;;;;;;;2.10;0.20;;;12.80;99.90;;;;;;5016592;28;20093;-67
2022/07/20 05:32:38;;;;;;;1.40;0.10;;;12.90;99.90;;;;;;5019232;28;20042;-68
2022/07/20 05:35:06;;;;;;;1.75;0.15;;;12.90;99.90;;;;;;5015000;28;20049;-67
2022/07/20 05:37:34;;;;;;;2.00;0.47;;;12.90;99.90;;;;;;5020052;28;20037;-67
2022/07/20 05:40:02;;;;;;;1.75;0.50;;;12.90;99.90;;;;;;5017833;28;20042;-68
2022/07/20 05:42:29;;;;;;;3.70;0.60;;;12.90;99.90;;;;;;5012380;28;20316;-67
2022/07/20 05:44:57;;;;;;;3.47;0.47;;;12.90;99.90;;;;;;5014848;28;20054;-68
2022/07/20 05:47:24;;;;;;;6.35;0.73;;;12.80;99.90;;;;;;5018233;28;20026;-68
2022/07/20 05:49:51;;;;;;;4.72;0.32;;;12.90;99.90;;;;;;5022472;28;20037;-67
2022/07/20 05:52:19;;;;;;;1.35;0.28;;;12.80;99.90;;;;;;5010718;28;20038;-68
2022/07/20 05:54:46;;;;;;;2.40;0.40;;;12.80;99.90;;;;;;5012815;28;20041;-68
2022/07/20 05:57:13;;;;;;;1.50;0.40;;;12.90;99.90;;;;;;5012025;28;20030;-68
2022/07/20 05:59:42;;;;;;;1.52;0.40;;;13.00;99.90;;;;;;5009682;28;20443;-68
2022/07/20 06:02:10;;;;;;;2.53;0.88;;;13.10;99.90;;;;;;5013163;28;20375;-68
2022/07/20 06:04:40;;;;;;;1.90;0.60;;;13.00;99.90;;;;;;4996228;28;20045;-68
2022/07/20 06:07:07;;;;;;;1.70;0.32;;;13.00;99.90;;;;;;5012597;28;20042;-67
2022/07/20 06:09:35;;;;;;;1.02;0.20;;;13.00;99.90;;;;;;5011848;28;20081;-68
2022/07/20 06:12:02;;;;;;;1.00;0.63;;;12.90;99.90;;;;;;5012971;28;20030;-68
2022/07/20 06:14:29;;;;;;;2.78;0.73;;;12.80;99.90;;;;;;5012149;28;20042;-69
2022/07/20 06:16:56;;;;;;;15.10;9.07;;;12.80;99.90;;;;;;5017256;28;20029;-69
2022/07/20 06:19:24;;;;;;;20.23;16.40;;;12.80;99.90;;;;;;5010965;28;20110;-69
2022/07/20 06:21:51;;;;;;;25.30;19.92;;;12.80;99.90;;;;;;5011828;28;20044;-69
2022/07/20 06:24:19;;;;;;;12.35;8.35;;;12.80;99.90;;;;;;5014287;28;20038;-69
2022/07/20 06:26:47;;;;;;;5.72;2.75;;;12.80;99.90;;;;;;5009388;28;20022;-69
2022/07/20 06:29:17;;;;;;;3.35;0.90;;;12.70;99.90;;;;;;5010560;28;20053;-69
2022/07/20 06:31:44;;;;;;;3.55;1.48;;;12.60;99.90;;;;;;5013661;28;20063;-72
2022/07/20 06:34:13;;;;;;;2.58;1.30;;;12.60;99.90;;;;;;5014599;28;20042;-68
2022/07/20 06:36:42;;;;;;;5.07;0.60;;;12.60;99.90;;;;;;5014842;28;20068;-68
2022/07/20 06:39:09;;;;;;;4.75;2.88;;;12.60;99.90;;;;;;5010189;28;20037;-68
2022/07/20 06:41:36;;;;;;;4.90;2.05;;;12.50;99.90;;;;;;5015504;28;20062;-68
2022/07/20 06:44:04;;;;;;;3.40;1.73;;;12.50;99.90;;;;;;5016736;28;20029;-67
2022/07/20 06:46:31;;;;;;;2.75;2.05;;;12.40;99.90;;;;;;5012446;28;20033;-67
2022/07/20 06:48:58;;;;;;;3.45;2.10;;;12.40;99.90;;;;;;5013808;28;20458;-67
2022/07/20 06:51:28;;;;;;;2.92;1.20;;;12.40;99.90;;;;;;5015406;28;20771;-67
2022/07/20 06:53:55;;;;;;;4.57;1.10;;;12.40;99.90;;;;;;5015276;28;20030;-67
2022/07/20 06:56:23;;;;;;;5.43;1.25;;;12.30;99.90;;;;;;5012003;28;20057;-68
2022/07/20 06:58:50;;;;;;;4.47;1.50;;;12.30;99.90;;;;;;5017438;28;20029;-68
2022/07/20 07:01:17;;;;;;;3.38;1.27;;;12.30;99.90;;;;;;5016949;28;20038;-68
2022/07/20 07:03:44;;;;;;;2.65;1.55;;;12.30;99.90;;;;;;5006544;28;20026;-67
2022/07/20 07:06:12;;;;;;;7.05;2.70;;;12.30;99.90;;;;;;5014743;28;20030;-68
2022/07/20 07:08:39;;;;;;;5.60;3.83;;;12.30;99.90;;;;;;5005123;28;20038;-68
2022/07/20 07:11:06;;;;;;;5.75;4.10;;;12.30;99.90;;;;;;5014126;28;20042;-68
2022/07/20 07:13:33;;;;;;;10.50;3.88;;;12.30;99.90;;;;;;5013094;28;20845;-69
2022/07/20 07:16:01;;;;;;;4.45;1.80;;;12.20;99.90;;;;;;5012529;28;20092;-69
2022/07/20 07:18:28;;;;;;;3.08;1.65;;;12.30;99.90;;;;;;5011042;28;20043;-69
2022/07/20 07:20:55;;;;;;;8.38;3.50;;;12.30;99.90;;;;;;5015744;28;20042;-69
2022/07/20 07:23:23;;;;;;;6.22;3.65;;;12.30;99.90;;;;;;5019527;28;20116;-69
2022/07/20 07:25:50;;;;;;;1.63;0.70;;;12.20;99.90;;;;;;5011677;28;20026;-68
2022/07/20 07:28:17;;;;;;;5.05;1.35;;;12.30;99.90;;;;;;5015942;28;20395;-70
2022/07/20 07:30:44;;;;;;;3.38;0.80;;;12.30;99.90;;;;;;4998607;28;20037;-69
2022/07/20 07:33:12;;;;;;;3.97;1.27;;;12.30;99.90;;;;;;5008713;28;20038;-69
2022/07/20 07:35:39;;;;;;;2.45;1.00;;;12.30;99.90;;;;;;5011456;28;20627;-69
2022/07/20 07:38:06;;;;;;;4.05;1.52;;;12.30;99.90;;;;;;5011407;28;20119;-69
2022/07/20 07:40:34;;;;;;;2.55;1.73;;;12.20;99.90;;;;;;5012015;28;20033;-68
2022/07/20 07:43:01;;;;;;;10.63;1.60;;;12.20;99.90;;;;;;5015133;28;20034;-68
2022/07/20 07:45:28;;;;;;;3.78;1.10;;;12.20;99.90;;;;;;5000706;28;20044;-70
2022/07/20 07:47:55;;;;;;;2.08;0.98;;;12.20;99.90;;;;;;5007865;28;20089;-70
2022/07/20 07:50:23;;;;;;;4.35;2.22;;;12.20;99.90;;;;;;5007997;28;20525;-68
2022/07/20 07:52:50;;;;;;;3.55;1.23;;;12.20;99.90;;;;;;5011114;28;20042;-68
2022/07/20 07:55:17;;;;;;;6.25;1.95;;;12.20;99.90;;;;;;5010289;28;20093;-68
2022/07/20 07:57:45;;;;;;;3.40;1.20;;;12.20;99.90;;;;;;5010397;28;20046;-70
2022/07/20 08:00:12;;;;;;;4.72;1.73;;;12.20;99.90;;;;;;5011393;28;20036;-68
2022/07/20 08:02:39;;;;;;;4.40;1.38;;;12.30;99.90;;;;;;5004132;28;20121;-70
2022/07/20 08:05:07;;;;;;;6.20;1.95;;;12.20;99.90;;;;;;5015224;28;20121;-69
2022/07/20 08:07:36;;;;;;;4.38;1.75;;;12.10;99.90;;;;;;5014550;28;20033;-71
2022/07/20 08:10:05;;;;;;;6.03;2.08;;;12.20;99.90;;;;;;5013658;28;20034;-70
2022/07/20 08:12:32;;;;;;;6.45;2.40;;;12.30;99.90;;;;;;5011437;28;20050;-69
2022/07/20 08:14:59;;;;;;;8.60;4.20;;;12.30;99.90;;;;;;5007793;28;20040;-70
2022/07/20 08:17:27;;;;;;;7.53;2.70;;;12.30;99.90;;;;;;5017928;28;20034;-68
2022/07/20 08:19:54;;;;;;;4.20;1.83;;;12.20;99.90;;;;;;4999987;28;20084;-69
2022/07/20 08:22:21;;;;;;;6.75;2.60;;;12.20;99.90;;;;;;5021467;28;20124;-68
2022/07/20 08:24:48;;;;;;;5.63;2.10;;;12.20;99.90;;;;;;5000164;28;20061;-68
2022/07/20 08:27:16;;;;;;;3.85;1.55;;;12.20;99.90;;;;;;5020704;28;20038;-69
2022/07/20 08:29:43;;;;;;;4.70;1.88;;;12.20;99.90;;;;;;5022768;28;20029;-69
2022/07/20 08:32:10;;;;;;;6.85;2.03;;;12.20;99.90;;;;;;5018538;28;20041;-69
2022/07/20 08:34:37;;;;;;;5.25;2.38;;;12.20;99.90;;;;;;5020024;28;20105;-70
2022/07/20 08:37:05;;;;;;;5.32;2.45;;;12.20;99.90;;;;;;5017326;28;20038;-68
2022/07/20 08:39:32;;;;;;;3.90;2.05;;;12.10;99.90;;;;;;5018297;28;20037;-69
2022/07/20 08:42:00;;;;;;;5.85;2.47;;;12.10;99.90;;;;;;5015503;28;20748;-69
2022/07/20 08:44:27;;;;;;;6.53;2.85;;;12.00;99.90;;;;;;5017466;28;20104;-69
2022/07/20 08:46:56;;;;;;;7.70;2.50;;;12.00;99.90;;;;;;5014817;28;20519;-69
2022/07/20 08:49:24;;;;;;;7.28;3.17;;;12.00;99.90;;;;;;5010085;28;20052;-69
2022/07/20 08:51:51;;;;;;;9.95;3.38;;;12.10;99.90;;;;;;5013604;28;20029;-68
2022/07/20 08:54:19;;;;;;;7.22;3.67;;;12.00;99.90;;;;;;5007200;28;20033;-67
2022/07/20 08:56:46;;;;;;;15.10;11.05;;;12.00;99.90;;;;;;5010596;28;20039;-67
2022/07/20 08:59:13;;;;;;;9.10;5.80;;;12.10;99.90;;;;;;5010455;28;20125;-68
2022/07/20 09:02:00;;;;;;;8.00;5.43;;;12.10;99.90;;;;;;5023954;28;20118;-68
2022/07/20 09:04:28;;;;;;;37.53;29.88;;;12.10;99.90;;;;;;5017093;28;20417;-68
2022/07/20 09:06:55;;;;;;;23.58;15.45;;;12.10;99.90;;;;;;5015536;28;20030;-68
2022/07/20 09:09:23;;;;;;;18.17;14.13;;;12.10;99.90;;;;;;5018426;28;20388;-68
2022/07/20 09:11:51;;;;;;;12.18;7.90;;;12.10;99.90;;;;;;5010960;28;20031;-67
2022/07/20 09:14:48;;;;;;;8.77;5.43;;;12.10;99.90;;;;;;5015058;28;20046;-67
2022/07/20 09:17:17;;;;;;;8.52;3.95;;;12.00;99.90;;;;;;5018297;28;20029;-68
2022/07/20 09:20:08;;;;;;;8.63;3.33;;;12.00;99.90;;;;;;5006104;28;20034;-67
2022/07/20 09:22:38;;;;;;;7.63;4.95;;;12.00;99.90;;;;;;5021736;28;20041;-67
2022/07/20 09:25:14;;;;;;;8.82;5.38;;;11.90;99.90;;;;;;5018899;28;20046;-68
2022/07/20 09:27:43;;;;;;;8.82;5.40;;;11.90;99.90;;;;;;5008953;28;20105;-68
2022/07/20 09:30:13;;;;;;;7.22;3.72;;;11.90;99.90;;;;;;5020160;28;20556;-67
2022/07/20 09:32:57;;;;;;;5.95;3.53;;;11.90;99.90;;;;;;5016146;28;20042;-68
2022/07/20 09:35:30;;;;;;;9.40;3.72;;;11.90;99.90;;;;;;5013308;28;20038;-68
2022/07/20 09:38:01;;;;;;;10.25;5.18;;;12.00;99.90;;;;;;5016768;28;20128;-68
2022/07/20 09:40:29;;;;;;;8.35;4.50;;;12.00;99.90;;;;;;5011795;28;20049;-68
2022/07/20 09:42:56;;;;;;;8.50;3.80;;;12.00;99.90;;;;;;5014188;28;20050;-68
2022/07/20 09:45:29;;;;;;;6.13;3.58;;;12.10;99.90;;;;;;5017939;28;20509;-68
2022/07/20 09:48:08;;;;;;;7.35;3.78;;;12.00;99.90;;;;;;5014504;28;20025;-68
2022/07/20 09:50:44;;;;;;;6.30;3.83;;;12.00;99.90;;;;;;5014942;28;20029;-68
2022/07/20 09:53:13;;;;;;;10.95;3.53;;;12.00;99.90;;;;;;5015724;28;20085;-68
2022/07/20 09:55:41;;;;;;;10.07;3.55;;;12.00;99.90;;;;;;5012364;28;20026;-68
2022/07/20 09:58:09;;;;;;;13.50;10.60;;;12.00;99.90;;;;;;5013980;28;20034;-67
2022/07/20 10:00:38;;;;;;;16.92;13.65;;;12.00;99.90;;;;;;5004693;28;20030;-67
2022/07/20 10:03:06;;;;;;;13.73;7.07;;;11.90;99.90;;;;;;5012007;28;20038;-69
2022/07/20 10:05:37;;;;;;;11.13;6.50;;;11.80;99.90;;;;;;5013923;28;20041;-67
2022/07/20 10:08:06;;;;;;;7.95;4.07;;;11.80;99.90;;;;;;5013001;28;20042;-67
2022/07/20 10:10:34;;;;;;;8.10;3.92;;;11.80;99.90;;;;;;5012118;28;20602;-67
2022/07/20 10:13:01;;;;;;;8.07;4.80;;;11.70;99.90;;;;;;5012913;28;20045;-68
2022/07/20 10:15:57;;;;;;;6.38;2.75;;;11.70;99.90;;;;;;5015569;28;20034;-67
2022/07/20 10:18:25;;;;;;;6.38;3.53;;;11.70;99.90;;;;;;4986220;28;20035;-67
2022/07/20 10:20:52;;;;;;;6.45;3.45;;;11.60;99.90;;;;;;5006967;28;20096;-67
2022/07/20 10:23:29;;;;;;;11.27;3.15;;;11.60;99.90;;;;;;5018756;28;20062;-67
2022/07/20 10:25:58;;;;;;;8.60;3.47;;;11.60;99.90;;;;;;5014200;28;20037;-68
2022/07/20 10:28:28;;;;;;;6.68;3.38;;;11.60;99.90;;;;;;5012238;28;20547;-69
2022/07/20 10:30:58;;;;;;;6.78;4.00;;;11.60;99.90;;;;;;5014426;28;20041;-68
2022/07/20 10:33:27;;;;;;;5.65;3.58;;;11.60;99.90;;;;;;5014426;28;20037;-68
2022/07/20 10:36:41;;;;;;;6.63;3.75;;;11.60;99.90;;;;;;5011430;28;20453;-68
2022/07/20 10:38:42;;;;;;;8.18;4.75;;;11.60;99.90;;;;;;5013127;28;20121;-67
2022/07/20 10:44:21;;;;;;;11.20;6.57;;;11.60;99.90;;;;;;5013236;28;20061;-67
2022/07/20 10:46:50;;;;;;;8.77;5.20;;;11.60;99.90;;;;;;5001391;28;20061;-68
2022/07/20 10:49:17;;;;;;;5.32;3.90;;;11.60;99.90;;;;;;5012980;28;20100;-68
2022/07/20 10:52:04;;;;;;;14.23;5.60;;;11.60;99.90;;;;;;5015890;28;20505;-67
2022/07/20 10:54:36;;;;;;;43.08;37.10;;;11.70;99.90;;;;;;5015987;28;20048;-69
2022/07/20 10:57:04;;;;;;;36.92;31.80;;;11.70;99.90;;;;;;4999175;28;20037;-68
2022/07/20 10:59:31;;;;;;;11.35;8.27;;;11.70;99.90;;;;;;5011078;28;20487;-68
2022/07/20 11:01:58;;;;;;;8.88;6.75;;;11.70;99.90;;;;;;5015100;28;20109;-68
2022/07/20 11:04:25;;;;;;;7.90;5.30;;;11.70;99.90;;;;;;4995431;28;20072;-68
2022/07/20 11:06:53;;;;;;;13.25;5.13;;;11.70;99.90;;;;;;5012757;28;20036;-68
2022/07/20 11:09:30;;;;;;;9.00;5.30;;;11.60;99.90;;;;;;5014697;28;20080;-67
2022/07/20 11:11:57;;;;;;;11.73;5.20;;;11.60;99.90;;;;;;4990979;28;20511;-68
2022/07/20 11:14:25;;;;;;;10.68;6.07;;;11.60;99.90;;;;;;5015132;28;20560;-69
2022/07/20 11:16:55;;;;;;;10.07;6.03;;;11.70;99.90;;;;;;4993416;28;20105;-68
2022/07/20 11:19:23;;;;;;;11.70;5.68;;;11.70;99.90;;;;;;5011155;28;20400;-68
2022/07/20 11:21:50;;;;;;;8.23;5.03;;;11.60;99.90;;;;;;5007389;28;20121;-67
2022/07/20 11:24:29;;;;;;;9.10;5.07;;;11.60;99.90;;;;;;5013283;28;20026;-69
2022/07/20 11:26:57;;;;;;;6.95;5.32;;;11.50;99.90;;;;;;5011447;28;20521;-68
2022/07/20 11:29:27;;;;;;;7.75;4.20;;;11.50;99.90;;;;;;5010523;28;20060;-69
2022/07/20 11:31:54;;;;;;;7.43;4.43;;;11.50;99.90;;;;;;5012528;28;20391;-67
2022/07/20 11:34:22;;;;;;;8.95;4.63;;;11.40;99.90;;;;;;5011080;28;20049;-67
2022/07/20 11:36:50;;;;;;;9.63;5.10;;;11.40;99.90;;;;;;5009627;28;20045;-68
2022/07/20 11:39:18;;;;;;;8.60;4.30;;;11.40;99.90;;;;;;5010630;28;20038;-68
2022/07/20 11:41:45;;;;;;;8.43;4.85;;;11.50;99.90;;;;;;5015646;28;20042;-69
2022/07/20 11:44:17;;;;;;;8.57;6.00;;;11.50;99.90;;;;;;5013427;28;20034;-69
2022/07/20 11:46:45;;;;;;;10.55;5.65;;;11.60;99.90;;;;;;5009919;28;20530;-69
2022/07/20 11:49:15;;;;;;;12.07;5.43;;;11.70;99.90;;;;;;5007966;28;20041;-69
2022/07/20 11:51:50;;;;;;;8.10;5.22;;;11.60;99.90;;;;;;4998120;28;20034;-69
2022/07/20 11:54:22;;;;;;;7.45;5.45;;;11.50;99.90;;;;;;5009417;28;20096;-69
2022/07/20 11:56:51;;;;;;;10.05;5.55;;;11.40;99.90;;;;;;5015031;28;20069;-68
2022/07/20 11:59:18;;;;;;;7.75;5.82;;;11.50;99.90;;;;;;5014252;28;20073;-69
2022/07/20 12:01:48;;;;;;;9.20;5.80;;;11.40;99.90;;;;;;5016904;28;20033;-69
2022/07/20 12:04:19;;;;;;;7.45;5.93;;;11.50;99.90;;;;;;5015949;28;20029;-69
2022/07/20 12:06:47;;;;;;;6.75;5.45;;;11.50;99.90;;;;;;5013277;28;20040;-69
2022/07/20 12:09:23;;;;;;;7.82;6.00;;;11.60;99.90;;;;;;5016062;28;20034;-68
2022/07/20 12:11:57;;;;;;;12.85;6.32;;;11.60;99.90;;;;;;5016747;28;20062;-69
2022/07/20 12:14:43;;;;;;;;;;;11.60;99.90;;;;;;5015864;28;20065;-68
2022/07/20 12:17:21;;;;;;;10.07;5.13;;;11.60;99.90;;;;;;5012254;28;19920;-68
2022/07/20 12:19:50;;;;;;;8.35;4.80;;;11.50;99.90;;;;;;5008409;28;20065;-69
2022/07/20 12:22:25;;;;;;;11.02;5.43;;;11.60;99.90;;;;;;5004496;28;20030;-67
2022/07/20 12:25:06;;;;;;;6.85;4.57;;;11.60;99.90;;;;;;5012552;28;20034;-67
2022/07/20 12:27:36;;;;;;;8.93;4.75;;;11.60;99.90;;;;;;5005678;28;20550;-68
2022/07/20 12:30:23;;;;;;;6.63;5.80;;;11.70;99.90;;;;;;5011705;28;20106;-67
2022/07/20 12:33:14;;;;;;;9.43;5.18;;;11.70;99.90;;;;;;5014157;28;20069;-69
2022/07/20 12:35:48;;;;;;;7.20;5.13;;;11.60;99.90;;;;;;5015540;28;20101;-68
2022/07/20 12:38:17;;;;;;;8.77;5.72;;;11.70;99.90;;;;;;5014234;28;20034;-69
2022/07/20 12:40:49;;;;;;;8.82;6.13;;;11.70;99.90;;;;;;5011338;28;20034;-68
2022/07/20 12:43:33;;;;;;;9.75;5.70;;;11.70;99.90;;;;;;5005078;28;20033;-68
2022/07/20 12:46:07;;;;;;;7.75;5.55;;;11.60;99.90;;;;;;5009916;28;20081;-69
2022/07/20 12:48:40;;;;;;;8.60;5.93;;;11.50;99.90;;;;;;5019045;28;20040;-68
2022/07/20 12:51:08;;;;;;;8.52;5.90;;;11.60;99.90;;;;;;5010032;28;20030;-68
2022/07/20 12:53:37;;;;;;;9.48;5.85;;;11.60;99.90;;;;;;5007209;28;20045;-67
2022/07/20 12:56:06;;;;;;;11.30;6.18;;;11.60;99.90;;;;;;5015231;28;20038;-67
2022/07/20 12:58:35;;;;;;;10.07;6.05;;;11.40;99.90;;;;;;5015758;28;20022;-68
2022/07/20 13:01:03;;;;;;;10.80;6.03;;;11.40;99.90;;;;;;5016558;28;20033;-67